Time;durP1;ratioP1;P1;durP2;ratioP2;P2;SDS_P1;SDS_P2;PMS_P1;PMS_P2;Temp;Humidity;BMP_temperature;BMP_pressure;BME280_temperature;BME280_humidity;BME280_pressure;Samples;Min_cycle;Max_cycle;Signal;HPM_P1;HPM_P2
2022/05/24 00:03:53;;;;;;;3.53;2.10;;;18.40;92.20;;;;;;10539950;28;20036;-60
2022/05/24 00:08:54;;;;;;;3.17;1.63;;;18.40;92.20;;;;;;10538955;28;20075;-57
2022/05/24 00:13:55;;;;;;;1.55;1.42;;;18.30;92.20;;;;;;10539412;28;20662;-62
2022/05/24 00:18:56;;;;;;;3.35;1.70;;;18.30;92.20;;;;;;10538846;28;20415;-61
2022/05/24 00:23:57;;;;;;;3.50;2.00;;;18.30;92.20;;;;;;10538850;28;20024;-62
2022/05/24 00:28:58;;;;;;;2.40;2.10;;;18.20;92.20;;;;;;10538492;28;20043;-58
2022/05/24 00:33:59;;;;;;;3.03;1.80;;;18.20;92.20;;;;;;10538280;28;20078;-60
2022/05/24 00:39:00;;;;;;;2.97;1.70;;;18.20;92.20;;;;;;10538172;28;20051;-63
2022/05/24 00:44:22;;;;;;;2.58;1.70;;;18.20;92.20;;;;;;10537973;28;20451;-61
2022/05/24 00:49:40;;;;;;;2.55;1.80;;;18.20;92.20;;;;;;10537972;28;20078;-62
2022/05/24 00:54:42;;;;;;;2.60;1.88;;;18.20;92.20;;;;;;10537582;28;20376;-62
2022/05/24 00:59:49;;;;;;;3.97;1.95;;;18.10;92.20;;;;;;10537263;28;20048;-62
2022/05/24 01:04:49;;;;;;;2.90;1.90;;;18.10;92.20;;;;;;10537120;28;20370;-61
2022/05/24 01:10:01;;;;;;;3.30;1.60;;;18.10;92.20;;;;;;10537130;28;20028;-62
2022/05/24 01:15:05;;;;;;;2.17;1.80;;;18.00;92.40;;;;;;10536933;28;20032;-57
2022/05/24 01:20:06;;;;;;;4.00;1.75;;;18.00;92.20;;;;;;10536749;28;20130;-55
2022/05/24 01:25:16;;;;;;;4.10;1.60;;;18.00;92.20;;;;;;10536792;28;20514;-62
2022/05/24 01:30:17;;;;;;;4.50;2.00;;;18.00;92.20;;;;;;10536224;28;20416;-57
2022/05/24 01:40:39;;;;;;;2.08;1.70;;;17.90;92.10;;;;;;10535977;28;20186;-62
2022/05/24 01:46:03;;;;;;;4.90;2.22;;;17.90;92.10;;;;;;10536184;28;20032;-59
2022/05/24 01:51:05;;;;;;;4.90;2.25;;;17.90;92.10;;;;;;10535851;28;20040;-57
2022/05/24 01:56:10;;;;;;;4.05;2.55;;;17.90;92.10;;;;;;10535998;28;20077;-61
2022/05/24 02:01:38;;;;;;;3.38;2.40;;;17.90;92.10;;;;;;10535801;28;20105;-61
2022/05/24 02:06:39;;;;;;;;;;;17.90;92.10;;;;;;10536361;28;20024;-57
2022/05/24 02:11:40;;;;;;;4.53;2.55;;;17.80;92.10;;;;;;10535632;28;19915;-59
2022/05/24 02:16:49;;;;;;;5.18;3.03;;;17.80;92.10;;;;;;10535395;28;20051;-62
2022/05/24 02:21:58;;;;;;;4.10;2.25;;;17.80;92.10;;;;;;10535420;28;20030;-63
2022/05/24 02:26:59;;;;;;;6.22;3.42;;;17.80;92.10;;;;;;10535417;28;20032;-64
2022/05/24 02:32:00;;;;;;;7.05;3.50;;;17.80;92.10;;;;;;10538994;28;20044;-58
2022/05/24 02:37:01;;;;;;;7.10;3.60;;;17.80;92.10;;;;;;10543101;28;20104;-63
2022/05/24 02:42:02;;;;;;;5.95;3.13;;;17.80;92.10;;;;;;10543075;28;20365;-60
2022/05/24 02:47:02;;;;;;;5.95;3.38;;;17.80;92.20;;;;;;10542496;28;20043;-62
2022/05/24 02:52:03;;;;;;;7.75;4.18;;;17.80;92.10;;;;;;10542486;28;20042;-57
2022/05/24 02:57:05;;;;;;;5.60;3.67;;;17.80;92.10;;;;;;10542302;28;20040;-56
2022/05/24 03:02:06;;;;;;;5.93;3.97;;;17.70;92.10;;;;;;10542293;28;20132;-59
2022/05/24 03:17:45;;;;;;;13.32;4.95;;;17.70;92.20;;;;;;10541672;28;20048;-59
2022/05/24 03:22:46;;;;;;;7.68;3.83;;;17.70;92.20;;;;;;10541406;28;20032;-57
2022/05/24 03:27:48;;;;;;;6.50;3.60;;;17.70;92.20;;;;;;10541169;28;20036;-58
2022/05/24 03:32:52;;;;;;;4.63;3.38;;;17.60;92.20;;;;;;10540841;28;20040;-56
2022/05/24 03:37:52;;;;;;;8.10;3.17;;;17.70;92.30;;;;;;10540806;28;20104;-58
2022/05/24 03:42:54;;;;;;;5.50;3.45;;;17.60;92.30;;;;;;10539289;28;20024;-59
2022/05/24 03:47:55;;;;;;;5.97;3.60;;;17.60;92.30;;;;;;10540705;28;20040;-61
2022/05/24 03:52:56;;;;;;;5.47;3.45;;;17.60;92.30;;;;;;10540133;28;20036;-60
2022/05/24 03:58:00;;;;;;;6.53;3.72;;;17.60;92.30;;;;;;10539977;28;20055;-57
2022/05/24 04:03:02;;;;;;;6.68;3.75;;;17.60;92.30;;;;;;10539769;28;20032;-62
2022/05/24 04:08:03;;;;;;;5.95;3.72;;;17.60;92.50;;;;;;10539406;28;20115;-60
2022/05/24 04:13:04;;;;;;;6.32;3.45;;;17.50;92.30;;;;;;10539394;28;20031;-62
2022/05/24 04:18:05;;;;;;;5.70;3.85;;;17.50;92.30;;;;;;10539151;28;20508;-58
2022/05/24 04:23:12;;;;;;;4.68;3.30;;;17.50;92.20;;;;;;10538814;28;20111;-59
2022/05/24 04:28:13;;;;;;;9.73;4.13;;;17.50;92.20;;;;;;10538902;28;20464;-62
2022/05/24 04:33:15;;;;;;;4.85;3.67;;;17.50;92.20;;;;;;10536092;28;20384;-62
2022/05/24 04:38:16;;;;;;;7.35;3.88;;;17.50;92.20;;;;;;10538411;28;20534;-62
2022/05/24 04:43:17;;;;;;;5.90;3.80;;;17.50;92.20;;;;;;10538225;28;20058;-59
2022/05/24 04:48:18;;;;;;;9.73;4.43;;;17.50;92.20;;;;;;10537825;28;20412;-57
2022/05/24 04:53:19;;;;;;;6.28;4.45;;;17.50;92.20;;;;;;10537427;28;20054;-62
2022/05/24 04:58:20;;;;;;;4.88;3.70;;;17.50;92.10;;;;;;10537633;28;20482;-56
2022/05/24 05:03:21;;;;;;;8.98;4.15;;;17.40;92.10;;;;;;10537463;28;20463;-59
2022/05/24 05:08:22;;;;;;;7.88;4.18;;;17.40;92.10;;;;;;10537281;28;20063;-60
2022/05/24 05:13:23;;;;;;;7.32;4.20;;;17.40;92.30;;;;;;10537072;28;20541;-60
2022/05/24 05:18:24;;;;;;;7.45;4.18;;;17.40;92.00;;;;;;10537204;28;20052;-56
2022/05/24 05:23:25;;;;;;;7.60;4.15;;;17.40;92.00;;;;;;10536741;28;20054;-56
2022/05/24 05:28:25;;;;;;;6.15;3.58;;;17.40;92.00;;;;;;10536755;28;20124;-63
2022/05/24 05:33:26;;;;;;;6.53;3.95;;;17.40;92.00;;;;;;10536353;28;20048;-60
2022/05/24 05:38:27;;;;;;;8.52;4.05;;;17.40;91.90;;;;;;10536236;28;20052;-57
2022/05/24 05:43:28;;;;;;;6.85;3.45;;;17.40;91.90;;;;;;10536395;28;20404;-59
2022/05/24 05:48:28;;;;;;;7.22;3.60;;;17.40;91.90;;;;;;10536082;28;20518;-63
2022/05/24 05:53:29;;;;;;;5.75;3.67;;;17.40;91.80;;;;;;10535771;28;20391;-61
2022/05/24 05:58:31;;;;;;;6.93;3.70;;;17.40;91.80;;;;;;10535263;28;20040;-57
2022/05/24 06:03:31;;;;;;;5.53;3.25;;;17.40;91.80;;;;;;10535191;28;20037;-57
2022/05/24 06:08:32;;;;;;;9.10;3.97;;;17.40;91.80;;;;;;10542642;28;20077;-57
2022/05/24 06:13:33;;;;;;;8.30;3.65;;;17.40;91.80;;;;;;10544408;28;20036;-57
2022/05/24 06:18:35;;;;;;;7.07;3.45;;;17.30;91.70;;;;;;10543754;28;20068;-58
2022/05/24 06:23:36;;;;;;;4.78;3.30;;;17.30;91.70;;;;;;10543629;28;20396;-59
2022/05/24 06:28:36;;;;;;;7.72;3.40;;;17.30;91.70;;;;;;10543356;28;20032;-63
2022/05/24 06:33:37;;;;;;;7.07;3.30;;;17.30;91.70;;;;;;10543359;28;20048;-61
2022/05/24 06:38:38;;;;;;;6.97;3.42;;;17.30;91.70;;;;;;10543040;28;20450;-56
2022/05/24 06:43:39;;;;;;;5.55;3.20;;;17.30;91.70;;;;;;10543096;28;20036;-61
2022/05/24 06:48:42;;;;;;;6.90;3.17;;;17.30;91.70;;;;;;10542646;28;20040;-61
2022/05/24 06:53:45;;;;;;;9.00;3.90;;;17.30;91.70;;;;;;10540956;28;20058;-59
2022/05/24 06:58:45;;;;;;;4.85;3.33;;;17.30;91.70;;;;;;10540350;28;20036;-62
2022/05/24 07:03:47;;;;;;;5.13;3.50;;;17.30;91.70;;;;;;10541542;28;20040;-61
2022/05/24 07:08:49;;;;;;;5.55;3.20;;;17.30;91.60;;;;;;10541861;28;20039;-57
2022/05/24 07:13:50;;;;;;;5.30;3.17;;;17.30;91.60;;;;;;10541590;28;20035;-58
2022/05/24 07:18:52;;;;;;;6.28;3.38;;;17.30;91.60;;;;;;10540993;28;20488;-66
2022/05/24 07:23:52;;;;;;;7.13;3.67;;;17.30;91.60;;;;;;10541278;28;20111;-57
2022/05/24 07:28:53;;;;;;;8.88;3.80;;;17.30;91.70;;;;;;10540886;28;20126;-62
2022/05/24 07:33:54;;;;;;;5.43;3.40;;;17.30;91.70;;;;;;10540466;28;20105;-58
2022/05/24 07:38:54;;;;;;;4.65;3.25;;;17.40;91.60;;;;;;10540519;28;20044;-55
2022/05/24 07:49:15;;;;;;;6.85;3.92;;;17.40;91.50;;;;;;10540263;28;20040;-64
2022/05/24 07:54:15;;;;;;;6.53;4.00;;;17.40;91.50;;;;;;10540274;28;20050;-63
2022/05/24 07:59:17;;;;;;;6.25;4.13;;;17.40;91.40;;;;;;10539763;28;20109;-64
2022/05/24 08:04:19;;;;;;;8.02;3.97;;;17.40;91.40;;;;;;10539788;28;20081;-65
2022/05/24 08:09:20;;;;;;;10.38;3.88;;;17.50;91.50;;;;;;10539214;28;20043;-63
2022/05/24 08:14:20;;;;;;;10.75;4.13;;;17.50;91.40;;;;;;10539091;28;20396;-63
2022/05/24 08:19:21;;;;;;;6.47;4.00;;;17.60;91.40;;;;;;10539052;28;20374;-63
2022/05/24 08:24:22;;;;;;;7.95;3.63;;;17.60;91.50;;;;;;10538859;28;20514;-64
2022/05/24 08:29:23;;;;;;;6.15;3.97;;;17.50;91.40;;;;;;10537962;28;20079;-65
2022/05/24 08:34:23;;;;;;;6.78;3.70;;;17.60;91.40;;;;;;10538452;28;20036;-62
2022/05/24 08:39:24;;;;;;;7.03;4.05;;;17.60;91.50;;;;;;10538017;28;20048;-64
2022/05/24 08:49:56;;;;;;;7.85;3.85;;;17.60;91.40;;;;;;10537692;28;20101;-64
2022/05/24 08:54:58;;;;;;;6.55;3.17;;;17.60;91.30;;;;;;10537438;28;20032;-61
2022/05/24 09:00:05;;;;;;;6.35;3.60;;;17.60;91.30;;;;;;10537256;28;20070;-57
2022/05/24 09:05:25;;;;;;;8.63;3.83;;;17.60;91.40;;;;;;10537201;28;20028;-60
2022/05/24 09:10:33;;;;;;;7.85;3.42;;;17.60;91.40;;;;;;10536800;28;20032;-61
2022/05/24 09:16:01;;;;;;;6.75;3.45;;;17.60;91.40;;;;;;10537427;28;20044;-61
2022/05/24 09:21:02;;;;;;;6.80;3.13;;;17.70;91.40;;;;;;10537283;28;20075;-61
2022/05/24 09:26:06;;;;;;;3.50;3.03;;;17.70;91.30;;;;;;10536899;28;20114;-62
2022/05/24 09:31:09;;;;;;;7.05;3.40;;;17.70;91.30;;;;;;10533312;28;20047;-57
2022/05/24 09:36:25;;;;;;;4.68;3.20;;;17.70;91.30;;;;;;10534905;28;21462;-56
2022/05/24 09:41:26;;;;;;;6.90;3.20;;;17.70;91.20;;;;;;10534621;28;20032;-56
2022/05/24 09:46:28;;;;;;;2.83;1.33;;;17.70;91.20;;;;;;10534390;28;20032;-56
2022/05/24 09:51:41;;;;;;;3.22;1.63;;;17.60;90.50;;;;;;10534404;28;20405;-64
2022/05/24 09:57:03;;;;;;;3.45;1.50;;;17.20;89.70;;;;;;10534453;28;20048;-66
2022/05/24 10:02:26;;;;;;;2.78;1.90;;;16.90;90.10;;;;;;10534304;28;20047;-60
2022/05/24 10:07:35;;;;;;;4.72;2.03;;;17.00;89.50;;;;;;10534415;28;20075;-64
2022/05/24 10:12:41;;;;;;;6.35;1.58;;;16.90;90.20;;;;;;10533828;28;20067;-61
2022/05/24 10:18:02;;;;;;;8.18;1.63;;;16.60;90.80;;;;;;10534073;28;20058;-64
2022/05/24 10:23:12;;;;;;;3.38;1.20;;;16.50;91.00;;;;;;10533965;28;20522;-60
2022/05/24 10:28:19;;;;;;;2.17;1.10;;;16.60;91.00;;;;;;10533633;28;20452;-58
2022/05/24 10:38:59;;;;;;;3.15;1.20;;;16.70;91.00;;;;;;10535058;28;20063;-61
2022/05/24 10:44:06;;;;;;;2.63;1.30;;;16.80;91.10;;;;;;10535234;28;20115;-61
2022/05/24 10:49:16;;;;;;;3.72;1.50;;;16.90;91.10;;;;;;10535153;28;20032;-61
2022/05/24 10:54:29;;;;;;;2.40;1.40;;;16.90;91.10;;;;;;10540893;28;20105;-58
2022/05/24 10:59:36;;;;;;;2.97;1.60;;;17.00;91.10;;;;;;10542235;28;20048;-57
2022/05/24 11:04:49;;;;;;;2.95;1.60;;;17.10;91.10;;;;;;10542183;28;20387;-57
2022/05/24 11:10:18;;;;;;;2.47;1.70;;;17.10;91.00;;;;;;10541979;28;20092;-62
2022/05/24 11:15:32;;;;;;;5.75;2.03;;;17.10;91.20;;;;;;10538937;28;20031;-62
2022/05/24 11:20:41;;;;;;;2.70;1.80;;;17.10;91.20;;;;;;10541522;28;20493;-56
2022/05/24 11:26:09;;;;;;;3.35;1.60;;;17.10;91.20;;;;;;10541242;28;20032;-63
2022/05/24 11:31:41;;;;;;;4.93;1.40;;;17.20;91.40;;;;;;10538080;28;20201;-64
2022/05/24 11:37:04;;;;;;;2.72;1.00;;;17.20;91.50;;;;;;10535554;28;20044;-66
2022/05/24 11:42:38;;;;;;;5.28;1.17;;;17.00;91.50;;;;;;10540234;28;20028;-59
2022/05/24 11:47:42;;;;;;;4.20;1.10;;;16.90;91.80;;;;;;10540242;28;20032;-65
2022/05/24 11:53:08;;;;;;;7.20;1.10;;;16.90;91.80;;;;;;10540017;28;20396;-59
2022/05/24 11:58:21;;;;;;;2.65;0.80;;;17.00;91.90;;;;;;10529403;28;20052;-58
2022/05/24 12:09:25;;;;;;;4.05;1.23;;;17.30;91.50;;;;;;10539597;28;20032;-70
2022/05/24 12:14:38;;;;;;;1.13;0.70;;;17.30;91.60;;;;;;10521441;28;20037;-70
2022/05/24 12:19:40;;;;;;;1.15;0.90;;;17.30;91.30;;;;;;10538906;28;20040;-57
2022/05/24 12:24:41;;;;;;;2.40;0.93;;;17.30;91.30;;;;;;10538949;28;20380;-64
2022/05/24 12:29:45;;;;;;;2.47;0.73;;;17.40;91.30;;;;;;10538602;28;20040;-58
2022/05/24 12:34:47;;;;;;;0.90;0.75;;;17.50;91.10;;;;;;10538602;28;20044;-59
2022/05/24 12:40:09;;;;;;;1.98;0.90;;;17.70;91.00;;;;;;10538404;28;20044;-64
2022/05/24 12:45:12;;;;;;;0.93;0.77;;;17.80;90.80;;;;;;10538254;28;20043;-57
2022/05/24 12:50:45;;;;;;;1.92;1.50;;;17.90;90.60;;;;;;10538227;28;20500;-70
2022/05/24 12:55:59;;;;;;;4.15;1.40;;;18.00;90.20;;;;;;10524993;28;20039;-68
2022/05/24 13:01:06;;;;;;;1.40;0.95;;;18.30;90.00;;;;;;10536850;28;20048;-68
2022/05/24 13:06:07;;;;;;;3.08;1.45;;;18.50;87.50;;;;;;10536953;28;20493;-68
2022/05/24 13:11:09;;;;;;;0.80;0.80;;;18.40;87.50;;;;;;10536926;28;20048;-59
2022/05/24 13:16:10;;;;;;;1.52;0.90;;;18.30;87.20;;;;;;10536486;28;20580;-62
2022/05/24 13:21:16;;;;;;;5.00;1.13;;;18.20;87.10;;;;;;10536503;28;20127;-72
2022/05/24 13:26:17;;;;;;;5.60;1.27;;;18.30;86.20;;;;;;10536853;28;20036;-71
2022/05/24 13:36:54;;;;;;;1.75;1.20;;;18.30;84.90;;;;;;10536113;28;20068;-70
2022/05/24 13:42:02;;;;;;;5.97;1.30;;;18.40;84.10;;;;;;10535964;28;20020;-67
2022/05/24 13:47:25;;;;;;;1.60;1.10;;;18.70;83.80;;;;;;10536206;28;20130;-60
2022/05/24 13:52:30;;;;;;;1.10;0.98;;;18.60;82.10;;;;;;10536772;28;20031;-74
2022/05/24 13:57:31;;;;;;;2.75;1.48;;;18.70;83.20;;;;;;10535868;28;20068;-71
2022/05/24 14:02:32;;;;;;;3.13;1.42;;;18.50;83.30;;;;;;10535962;28;20500;-64
2022/05/24 14:07:33;;;;;;;2.85;1.77;;;18.70;83.20;;;;;;10535481;28;20032;-67
2022/05/24 14:12:34;;;;;;;2.72;1.40;;;18.60;83.20;;;;;;10535779;28;20123;-73
2022/05/24 14:17:34;;;;;;;4.90;1.42;;;18.70;83.20;;;;;;10535565;28;20100;-62
2022/05/24 14:22:35;;;;;;;5.90;1.67;;;18.80;82.60;;;;;;10535434;28;20037;-60
2022/05/24 14:27:37;;;;;;;2.58;1.60;;;19.20;81.90;;;;;;10538515;28;20054;-75
2022/05/24 14:32:38;;;;;;;1.67;1.50;;;19.20;80.90;;;;;;10543528;28;20044;-68
2022/05/24 14:37:39;;;;;;;2.47;1.70;;;19.10;81.30;;;;;;10542878;28;20140;-75
2022/05/24 14:42:43;;;;;;;2.58;1.65;;;19.10;80.90;;;;;;10543232;28;20511;-64
2022/05/24 14:47:46;;;;;;;3.25;1.50;;;19.30;80.60;;;;;;10542476;28;20032;-76
2022/05/24 14:52:46;;;;;;;2.83;1.60;;;19.60;80.00;;;;;;10542688;28;20093;-75
2022/05/24 14:57:47;;;;;;;2.30;1.50;;;19.80;79.30;;;;;;10542431;28;20040;-73
2022/05/24 15:02:48;;;;;;;4.97;1.40;;;19.70;79.00;;;;;;10542090;28;20481;-69
2022/05/24 15:18:42;;;;;;;2.33;1.38;;;20.00;77.60;;;;;;10541804;28;20134;-75
2022/05/24 15:23:44;;;;;;;4.78;1.30;;;19.80;78.00;;;;;;10542063;28;20139;-63
2022/05/24 15:28:46;;;;;;;4.47;1.40;;;19.60;78.10;;;;;;10541206;28;20066;-60
2022/05/24 15:33:48;;;;;;;2.97;1.27;;;19.60;78.30;;;;;;10542017;28;20047;-61
2022/05/24 15:38:48;;;;;;;2.58;1.50;;;19.60;78.60;;;;;;10540191;28;20048;-68
2022/05/24 15:43:50;;;;;;;4.13;1.30;;;19.70;77.70;;;;;;10522333;28;20028;-60
2022/05/24 15:48:52;;;;;;;1.42;1.30;;;19.80;77.50;;;;;;10541396;28;20113;-64
2022/05/24 15:53:53;;;;;;;3.92;1.00;;;19.60;77.30;;;;;;10540345;28;20624;-66
2022/05/24 15:58:55;;;;;;;1.80;1.20;;;19.50;77.50;;;;;;10540181;28;20067;-65
2022/05/24 16:03:55;;;;;;;2.13;1.05;;;19.40;77.50;;;;;;10540010;28;20036;-59
2022/05/24 16:10:02;;;;;;;1.20;0.88;;;19.30;77.50;;;;;;10540084;28;20389;-62
2022/05/24 16:14:39;;;;;;;1.40;1.30;;;19.10;78.10;;;;;;10539373;28;20137;-64
2022/05/24 16:19:41;;;;;;;2.33;0.90;;;18.90;77.60;;;;;;10539003;28;20040;-61
2022/05/24 16:24:42;;;;;;;1.48;0.88;;;18.70;77.90;;;;;;10539232;28;20077;-67
2022/05/24 16:29:43;;;;;;;4.72;1.17;;;18.50;78.50;;;;;;10538883;28;20079;-63
2022/05/24 16:34:43;;;;;;;3.08;1.20;;;18.40;78.80;;;;;;10538782;28;20106;-67
2022/05/24 16:39:44;;;;;;;2.25;1.10;;;18.40;78.80;;;;;;10538226;28;20051;-75
2022/05/24 16:44:45;;;;;;;5.55;1.20;;;18.40;78.60;;;;;;10538185;28;20032;-71
2022/05/24 16:49:46;;;;;;;4.25;1.23;;;18.50;78.60;;;;;;10537824;28;20524;-64
2022/05/24 17:00:10;;;;;;;2.08;1.00;;;18.40;78.60;;;;;;10537635;28;20044;-58
2022/05/24 17:05:12;;;;;;;3.90;1.15;;;18.40;78.20;;;;;;10537221;28;20051;-71
2022/05/24 17:10:15;;;;;;;3.30;1.40;;;18.20;78.30;;;;;;10536901;28;20032;-62
2022/05/24 17:15:19;;;;;;;1.60;1.00;;;18.00;78.40;;;;;;10537211;28;20028;-69
2022/05/24 17:20:22;;;;;;;5.50;1.15;;;17.90;78.80;;;;;;10536393;28;20032;-58
2022/05/24 17:25:23;;;;;;;2.92;1.33;;;17.80;78.90;;;;;;10518549;28;20044;-59
2022/05/24 17:30:24;;;;;;;2.33;1.30;;;17.80;79.00;;;;;;10533603;28;20469;-61
2022/05/24 17:35:25;;;;;;;1.60;1.00;;;17.70;79.20;;;;;;10536272;28;20131;-59
2022/05/24 17:40:26;;;;;;;3.97;1.35;;;17.70;79.40;;;;;;10518019;28;20139;-57
2022/05/24 17:45:27;;;;;;;3.92;1.20;;;17.70;79.30;;;;;;10535658;28;20032;-72
2022/05/24 17:50:28;;;;;;;2.50;1.70;;;17.90;79.30;;;;;;10535604;28;20070;-69
2022/05/24 17:55:28;;;;;;;1.90;1.10;;;17.90;79.40;;;;;;10535371;28;20063;-67
2022/05/24 18:00:29;;;;;;;2.78;1.23;;;17.90;79.40;;;;;;10535296;28;20050;-72
2022/05/24 18:05:30;;;;;;;1.50;1.10;;;17.80;79.20;;;;;;10542561;28;20537;-68
2022/05/24 18:10:31;;;;;;;1.60;1.02;;;17.70;79.40;;;;;;10543865;28;20044;-69
2022/05/24 18:15:33;;;;;;;3.22;1.00;;;17.60;79.50;;;;;;10543593;28;20391;-69
2022/05/24 18:20:35;;;;;;;2.45;0.98;;;17.40;79.50;;;;;;10543439;28;20143;-55
2022/05/24 18:36:33;;;;;;;2.45;1.15;;;17.70;79.50;;;;;;10543042;28;20115;-61
2022/05/24 18:41:34;;;;;;;1.15;1.00;;;17.80;79.60;;;;;;10542719;28;20431;-73
2022/05/24 18:46:35;;;;;;;4.80;1.20;;;17.90;79.70;;;;;;10542923;28;20051;-57
2022/05/24 18:51:35;;;;;;;5.15;1.20;;;17.90;79.70;;;;;;10542457;28;20464;-59
2022/05/24 18:56:36;;;;;;;1.83;0.90;;;17.90;79.70;;;;;;10542025;28;20043;-74
2022/05/24 19:01:39;;;;;;;1.45;0.95;;;18.00;79.80;;;;;;10542037;28;20062;-72
2022/05/24 19:06:40;;;;;;;3.85;1.20;;;18.00;79.90;;;;;;10523903;28;20438;-67
2022/05/24 19:11:41;;;;;;;2.17;1.10;;;18.00;80.00;;;;;;10541059;28;20169;-73
2022/05/24 19:16:41;;;;;;;2.10;1.10;;;18.00;80.10;;;;;;10541097;28;20540;-63
2022/05/24 19:21:42;;;;;;;2.67;1.00;;;18.00;80.20;;;;;;10540982;28;20044;-65
2022/05/24 19:26:43;;;;;;;1.83;0.98;;;18.00;80.40;;;;;;10541270;28;20036;-60
2022/05/24 19:31:43;;;;;;;3.30;1.00;;;18.00;80.50;;;;;;10540800;28;20134;-80
2022/05/24 19:36:45;;;;;;;1.35;1.00;;;18.00;80.60;;;;;;10540409;28;20381;-77
2022/05/24 19:41:46;;;;;;;0.88;0.82;;;18.00;80.70;;;;;;10540618;28;20055;-69
2022/05/24 19:46:47;;;;;;;1.50;0.98;;;18.00;80.80;;;;;;10540387;28;20036;-74
2022/05/24 19:51:48;;;;;;;1.48;1.00;;;17.90;80.90;;;;;;10540044;28;20058;-76
2022/05/24 19:56:55;;;;;;;1.27;1.02;;;17.90;81.10;;;;;;10540290;28;20469;-67
2022/05/24 20:01:56;;;;;;;1.95;1.05;;;17.90;81.10;;;;;;10540362;28;20064;-61
2022/05/24 20:06:57;;;;;;;2.17;1.00;;;17.90;81.20;;;;;;10539927;28;20032;-52
2022/05/24 20:11:58;;;;;;;1.20;1.10;;;17.90;81.30;;;;;;10539132;28;20119;-73
2022/05/24 20:17:00;;;;;;;1.00;0.80;;;17.90;81.40;;;;;;10538875;28;20056;-69
2022/05/24 20:22:00;;;;;;;1.25;0.82;;;17.80;81.50;;;;;;10538843;28;20054;-75
2022/05/24 20:27:03;;;;;;;1.88;1.05;;;17.80;81.60;;;;;;10537764;28;20527;-71
2022/05/24 20:32:04;;;;;;;1.23;1.08;;;17.80;81.70;;;;;;10538163;28;20496;-53
2022/05/24 20:37:06;;;;;;;1.50;1.20;;;17.80;81.80;;;;;;10538083;28;20082;-56
2022/05/24 20:42:09;;;;;;;2.03;1.10;;;17.80;81.80;;;;;;10537993;28;20034;-59
2022/05/24 20:47:10;;;;;;;1.23;0.93;;;17.70;81.80;;;;;;10537960;28;20085;-70
2022/05/24 20:52:12;;;;;;;2.25;1.20;;;17.70;81.90;;;;;;10519480;28;20046;-59
2022/05/24 20:57:12;;;;;;;2.30;1.13;;;17.70;81.90;;;;;;10537476;28;20040;-56
2022/05/24 21:02:13;;;;;;;1.80;1.02;;;17.70;82.00;;;;;;10537151;28;20032;-63
2022/05/24 21:07:14;;;;;;;2.38;1.10;;;17.60;82.00;;;;;;10536927;28;20078;-58
2022/05/24 21:12:16;;;;;;;3.15;1.10;;;17.60;82.00;;;;;;10536859;28;20104;-67
2022/05/24 21:17:25;;;;;;;1.52;1.17;;;17.60;82.10;;;;;;10536511;28;20044;-57
2022/05/24 21:22:27;;;;;;;3.58;1.30;;;17.60;82.10;;;;;;10536023;28;20040;-66
2022/05/24 21:32:56;;;;;;;1.65;1.42;;;17.50;82.20;;;;;;10536192;28;20040;-62
2022/05/24 21:38:00;;;;;;;2.15;1.60;;;17.50;82.30;;;;;;10536157;28;20040;-63
2022/05/24 21:43:03;;;;;;;2.45;1.55;;;17.50;82.30;;;;;;10535964;28;20119;-68
2022/05/24 21:48:31;;;;;;;2.00;1.70;;;17.40;82.30;;;;;;10536109;28;20123;-59
2022/05/24 21:53:33;;;;;;;2.17;1.73;;;17.40;82.40;;;;;;10535712;28;20028;-73
2022/05/24 21:58:34;;;;;;;2.70;1.80;;;17.40;82.50;;;;;;10535302;28;20521;-64
2022/05/24 22:03:37;;;;;;;2.42;2.05;;;17.40;82.50;;;;;;10535592;28;20048;-58
2022/05/24 22:08:39;;;;;;;2.55;2.00;;;17.30;82.60;;;;;;10535610;28;20058;-55
2022/05/24 22:13:40;;;;;;;2.20;2.00;;;17.30;82.60;;;;;;10535558;28;20036;-65
2022/05/24 22:18:41;;;;;;;2.45;2.17;;;17.30;82.70;;;;;;10535184;28;20036;-62
2022/05/24 22:23:44;;;;;;;3.10;2.47;;;17.20;82.70;;;;;;10535331;28;20387;-73
2022/05/24 22:28:45;;;;;;;2.70;2.30;;;17.20;82.70;;;;;;10535041;28;20476;-74
2022/05/24 22:33:46;;;;;;;3.75;2.50;;;17.20;82.70;;;;;;10534967;28;20052;-71
2022/05/24 22:38:47;;;;;;;3.00;2.42;;;17.20;82.70;;;;;;10534759;28;20189;-53
2022/05/24 22:43:49;;;;;;;3.33;2.35;;;17.10;82.70;;;;;;10534642;28;20127;-56
2022/05/24 22:48:51;;;;;;;3.03;2.30;;;17.10;82.70;;;;;;10520419;28;20386;-62
2022/05/24 22:53:52;;;;;;;3.03;2.50;;;17.10;82.70;;;;;;10542912;28;20123;-60
2022/05/24 22:58:53;;;;;;;4.22;2.80;;;17.00;82.70;;;;;;10542576;28;20040;-56
2022/05/24 23:03:54;;;;;;;4.47;2.72;;;17.00;82.70;;;;;;10542025;28;20031;-70
2022/05/24 23:08:55;;;;;;;3.35;2.65;;;17.00;82.80;;;;;;10542044;28;20381;-72
2022/05/24 23:13:56;;;;;;;3.67;2.58;;;17.00;82.80;;;;;;10541414;28;20028;-55
2022/05/24 23:18:57;;;;;;;3.40;2.50;;;16.90;82.80;;;;;;10541565;28;20040;-62
2022/05/24 23:23:57;;;;;;;4.60;2.63;;;16.90;82.80;;;;;;10541349;28;20032;-73
2022/05/24 23:28:58;;;;;;;3.85;2.70;;;16.90;82.80;;;;;;10541021;28;20542;-56
2022/05/24 23:33:59;;;;;;;3.42;2.88;;;16.90;82.80;;;;;;10538765;28;20397;-68
2022/05/24 23:39:00;;;;;;;3.92;3.00;;;16.70;82.80;;;;;;10540745;28;20048;-55
2022/05/24 23:44:01;;;;;;;3.08;2.30;;;16.80;82.80;;;;;;10540526;28;20032;-66
2022/05/24 23:49:02;;;;;;;2.70;2.40;;;16.80;82.90;;;;;;10540222;28;20043;-56
2022/05/24 23:54:02;;;;;;;3.38;2.60;;;16.70;82.90;;;;;;10540190;28;20052;-56
2022/05/24 23:59:03;;;;;;;3.40;2.50;;;16.70;82.90;;;;;;10539799;28;20435;-63
